createdAt,value
2023-05-07T04:49:40.844Z,1.43
2023-05-07T04:54:43.620Z,2.30
2023-05-07T04:59:46.725Z,1.87
2023-05-07T05:04:49.471Z,2.10
2023-05-07T05:09:52.237Z,1.90
2023-05-07T05:14:55.253Z,1.57
2023-05-07T05:19:57.977Z,1.53
2023-05-07T05:25:01.784Z,1.50
2023-05-07T05:30:06.420Z,1.47
2023-05-07T05:35:09.416Z,1.30
2023-05-07T05:40:12.931Z,1.43
2023-05-07T05:45:15.857Z,1.43
2023-05-07T05:50:18.754Z,1.63
2023-05-07T05:55:21.704Z,1.60
2023-05-07T06:00:24.764Z,1.43
2023-05-07T06:05:27.739Z,1.70
2023-05-07T06:10:31.337Z,1.60
2023-05-07T06:15:34.092Z,1.77
2023-05-07T06:20:36.888Z,1.80
2023-05-07T06:25:39.750Z,1.80
2023-05-07T06:30:42.616Z,1.53
2023-05-07T06:35:45.443Z,1.60
2023-05-07T06:40:51.163Z,1.93
2023-05-07T06:45:53.978Z,1.70
2023-05-07T06:50:58.528Z,1.57
2023-05-07T06:56:01.288Z,1.67
2023-05-07T07:01:04.117Z,1.60
2023-05-07T07:06:07.074Z,2.33
2023-05-07T07:11:11.121Z,1.70
2023-05-07T07:16:13.921Z,2.10
2023-05-07T07:21:16.665Z,1.77
2023-05-07T07:26:19.646Z,1.67
2023-05-07T07:31:22.435Z,1.20
2023-05-07T07:36:29.510Z,1.40
2023-05-07T07:41:41.580Z,1.50
2023-05-07T07:46:44.415Z,1.33
2023-05-07T07:51:47.229Z,1.50
2023-05-07T07:56:50.033Z,1.60
2023-05-07T08:01:55.613Z,1.70
2023-05-07T08:06:58.637Z,1.73
2023-05-07T08:12:02.310Z,1.37
2023-05-07T08:17:05.348Z,1.37
2023-05-07T08:22:08.182Z,1.50
2023-05-07T08:27:10.922Z,1.60
2023-05-07T08:32:13.664Z,2.17
2023-05-07T08:37:16.383Z,2.00
2023-05-07T08:42:19.400Z,1.80
2023-05-07T08:47:24.347Z,2.30
2023-05-07T08:52:28.137Z,1.77
2023-05-07T08:57:32.163Z,1.87
2023-05-07T09:02:37.381Z,1.93
2023-05-07T09:07:40.490Z,1.80
2023-05-07T09:12:43.270Z,1.90
2023-05-07T09:17:46.115Z,2.03
2023-05-07T09:22:52.407Z,2.37
2023-05-07T09:27:55.423Z,2.20
2023-05-07T09:33:00.373Z,1.97
2023-05-07T09:38:04.297Z,1.80
2023-05-07T09:43:15.120Z,2.00
2023-05-07T09:48:19.141Z,2.20
2023-05-07T09:53:22.233Z,2.00
2023-05-07T09:58:25.847Z,1.37
2023-05-07T10:03:29.818Z,2.30
2023-05-07T10:08:32.846Z,2.20
2023-05-07T10:13:39.131Z,2.23
2023-05-07T10:18:45.055Z,2.20
2023-05-07T10:23:59.329Z,2.10
2023-05-07T10:29:09.156Z,2.30
2023-05-07T10:34:14.190Z,3.03
2023-05-07T10:39:17.031Z,2.43
2023-05-07T10:44:32.108Z,2.13
2023-05-07T10:49:34.877Z,2.10
2023-05-07T10:54:37.938Z,1.90
2023-05-07T10:59:43.648Z,1.97
2023-05-07T11:04:46.572Z,2.50
2023-05-07T11:09:56.853Z,2.20
2023-05-07T11:14:59.714Z,2.63
2023-05-07T11:20:06.034Z,2.50
2023-05-07T11:25:09.010Z,2.50
2023-05-07T11:30:17.644Z,2.97
2023-05-07T11:35:25.835Z,2.90
2023-05-07T11:40:29.703Z,2.30
2023-05-07T11:45:32.491Z,2.50
2023-05-07T11:50:35.260Z,2.43
2023-05-07T11:55:38.055Z,2.87
2023-05-07T12:00:40.899Z,2.97
2023-05-07T12:05:43.752Z,2.33
2023-05-07T12:10:48.852Z,2.20
2023-05-07T12:15:56.419Z,2.60
2023-05-07T12:21:00.104Z,2.73
2023-05-07T12:26:05.025Z,2.70
2023-05-07T12:31:09.570Z,2.40
2023-05-07T12:36:14.232Z,2.70
2023-05-07T12:41:17.454Z,2.87
2023-05-07T12:46:20.550Z,2.50
2023-05-07T12:51:24.095Z,2.20
2023-05-07T12:56:26.963Z,1.87
2023-05-07T13:01:34.931Z,2.17
2023-05-07T13:06:37.796Z,1.73
2023-05-07T13:11:40.520Z,2.40
2023-05-07T13:16:43.626Z,1.97
2023-05-07T13:21:46.497Z,2.30
2023-05-07T13:26:49.270Z,3.00
2023-05-07T13:31:52.035Z,1.90
2023-05-07T13:36:54.896Z,2.90
2023-05-07T13:41:57.690Z,2.03
2023-05-07T13:47:01.562Z,2.33
2023-05-07T13:52:04.786Z,2.40
2023-05-07T13:57:07.558Z,1.90
2023-05-07T14:02:10.385Z,1.77
2023-05-07T14:07:13.320Z,1.93
2023-05-07T14:12:16.601Z,2.07
2023-05-07T14:17:20.243Z,2.00
2023-05-07T14:22:23.817Z,1.93
2023-05-07T14:27:26.606Z,2.03
2023-05-07T14:32:29.371Z,2.20
2023-05-07T14:37:32.192Z,2.83
2023-05-07T14:42:34.952Z,2.80
2023-05-07T14:47:37.730Z,2.20
2023-05-07T14:52:43.499Z,2.17
2023-05-07T14:57:46.255Z,2.20
2023-05-07T15:02:49.214Z,2.27
2023-05-07T15:07:52.128Z,2.40
2023-05-07T15:12:54.918Z,2.27
2023-05-07T15:17:57.762Z,2.50
2023-05-07T15:23:00.726Z,1.87
2023-05-07T15:28:03.678Z,3.17
2023-05-07T15:33:06.839Z,2.63
2023-05-07T15:38:10.060Z,2.57
2023-05-07T15:43:13.278Z,3.73
2023-05-07T15:48:16.057Z,2.10
2023-05-07T15:53:18.862Z,3.20
2023-05-07T15:58:21.869Z,3.13
2023-05-07T16:03:24.710Z,3.70
2023-05-07T16:08:28.041Z,3.57
2023-05-07T16:13:30.899Z,3.30
2023-05-07T16:18:33.689Z,3.17
2023-05-07T16:23:37.226Z,3.00
2023-05-07T16:28:40.289Z,2.80
2023-05-07T16:33:43.047Z,3.73
2023-05-07T16:38:45.892Z,3.13
2023-05-07T16:43:48.856Z,2.90
2023-05-07T16:48:51.725Z,3.70
2023-05-07T16:53:54.741Z,3.57
2023-05-07T16:58:57.512Z,3.17
2023-05-07T17:04:07.708Z,3.00
2023-05-07T17:09:12.113Z,3.53
2023-05-07T17:14:14.973Z,3.80
2023-05-07T17:19:17.734Z,3.77
2023-05-07T17:24:20.485Z,3.57
2023-05-07T17:29:23.297Z,3.97
2023-05-07T17:34:26.150Z,3.43
2023-05-07T17:39:28.934Z,3.63
2023-05-07T17:44:31.764Z,3.47
2023-05-07T17:49:35.204Z,3.70
2023-05-07T17:54:37.983Z,2.87
2023-05-07T17:59:40.775Z,3.27
2023-05-07T18:04:43.599Z,3.50
2023-05-07T18:09:46.362Z,3.20
2023-05-07T18:14:49.155Z,2.77
2023-05-07T18:19:54.670Z,3.20
2023-05-07T18:24:58.150Z,3.07
2023-05-07T18:30:01.204Z,2.87
2023-05-07T18:35:04.625Z,2.40
2023-05-07T18:40:07.987Z,3.07
2023-05-07T18:45:11.155Z,2.40
2023-05-07T18:50:15.288Z,3.30
2023-05-07T18:55:18.478Z,3.50
2023-05-07T19:00:21.376Z,2.53
2023-05-07T19:05:24.829Z,3.00
2023-05-07T19:10:27.626Z,3.30
2023-05-07T19:15:30.517Z,3.23
2023-05-07T19:20:33.453Z,2.83
2023-05-07T19:25:36.334Z,3.40
2023-05-07T19:30:40.778Z,2.73
2023-05-07T19:35:43.627Z,2.77
2023-05-07T19:40:46.823Z,2.40
2023-05-07T19:45:50.154Z,3.03
2023-05-07T19:50:53.040Z,2.93
2023-05-07T19:56:11.001Z,2.67
2023-05-07T20:01:13.840Z,3.17
2023-05-07T20:06:16.650Z,3.80
2023-05-07T20:11:20.326Z,3.03
2023-05-07T20:16:23.303Z,2.57
2023-05-07T20:21:26.861Z,2.87
2023-05-07T20:26:29.765Z,2.60
2023-05-07T20:31:34.987Z,2.93
2023-05-07T20:36:37.941Z,3.60
2023-05-07T20:41:40.704Z,2.83
2023-05-07T20:46:44.687Z,2.77
2023-05-07T20:51:47.503Z,3.00
2023-05-07T20:56:50.314Z,2.80
2023-05-07T21:01:53.257Z,2.57
2023-05-07T21:06:56.909Z,3.23
2023-05-07T21:12:00.495Z,2.43
2023-05-07T21:17:06.311Z,2.67
2023-05-07T21:22:09.682Z,2.57
2023-05-07T21:27:13.160Z,2.73
2023-05-07T21:32:18.306Z,2.13
2023-05-07T21:37:21.567Z,2.87
2023-05-07T21:42:25.251Z,2.53
2023-05-07T21:47:28.516Z,2.47
2023-05-07T21:52:32.017Z,2.33
2023-05-07T21:57:36.222Z,2.33
2023-05-07T22:02:39.751Z,2.60
2023-05-07T22:07:43.332Z,2.00
2023-05-07T22:12:46.714Z,2.40
2023-05-07T22:17:50.030Z,2.50
2023-05-07T22:22:54.779Z,2.37
2023-05-07T22:27:58.022Z,2.20
2023-05-07T22:33:01.421Z,2.30
2023-05-07T22:38:04.511Z,2.30
2023-05-07T22:43:07.236Z,2.80
2023-05-07T22:48:10.039Z,2.10
2023-05-07T22:53:12.881Z,2.30
2023-05-07T22:58:15.844Z,2.23
2023-05-07T23:03:18.785Z,2.30
2023-05-07T23:08:21.692Z,2.30
2023-05-07T23:13:24.522Z,2.47
2023-05-07T23:18:32.477Z,2.20
2023-05-07T23:23:35.880Z,2.20
2023-05-07T23:28:38.639Z,2.80
2023-05-07T23:33:41.691Z,2.37
2023-05-07T23:38:44.456Z,1.90
2023-05-07T23:43:47.387Z,1.87
